sensor_id;sensor_type;location;lat;lon;timestamp;temperature;humidity
65378;SHT31;51982;51.042;13.806;2023-01-15T00:00:01;11.32;78.64
65378;SHT31;51982;51.042;13.806;2023-01-15T00:02:26;11.34;78.52
65378;SHT31;51982;51.042;13.806;2023-01-15T00:04:51;11.34;78.54
65378;SHT31;51982;51.042;13.806;2023-01-15T00:07:16;11.37;78.50
65378;SHT31;51982;51.042;13.806;2023-01-15T00:09:42;11.32;78.79
65378;SHT31;51982;51.042;13.806;2023-01-15T00:12:07;11.36;78.71
65378;SHT31;51982;51.042;13.806;2023-01-15T00:14:33;11.36;78.74
65378;SHT31;51982;51.042;13.806;2023-01-15T00:16:58;11.34;78.77
65378;SHT31;51982;51.042;13.806;2023-01-15T00:19:23;11.36;78.73
65378;SHT31;51982;51.042;13.806;2023-01-15T00:21:48;11.39;78.72
65378;SHT31;51982;51.042;13.806;2023-01-15T00:24:14;11.43;78.68
65378;SHT31;51982;51.042;13.806;2023-01-15T00:26:58;11.43;78.71
65378;SHT31;51982;51.042;13.806;2023-01-15T00:29:41;11.37;78.95
65378;SHT31;51982;51.042;13.806;2023-01-15T00:32:07;11.42;78.93
65378;SHT31;51982;51.042;13.806;2023-01-15T00:34:33;11.43;78.89
65378;SHT31;51982;51.042;13.806;2023-01-15T00:36:59;11.44;78.79
65378;SHT31;51982;51.042;13.806;2023-01-15T00:39:25;11.46;78.82
65378;SHT31;51982;51.042;13.806;2023-01-15T00:41:50;11.47;78.77
65378;SHT31;51982;51.042;13.806;2023-01-15T00:44:16;11.44;78.95
65378;SHT31;51982;51.042;13.806;2023-01-15T00:46:41;11.43;79.11
65378;SHT31;51982;51.042;13.806;2023-01-15T00:49:07;11.44;79.04
65378;SHT31;51982;51.042;13.806;2023-01-15T00:51:34;11.47;78.96
65378;SHT31;51982;51.042;13.806;2023-01-15T00:54:00;11.50;79.11
65378;SHT31;51982;51.042;13.806;2023-01-15T00:56:25;11.46;79.08
65378;SHT31;51982;51.042;13.806;2023-01-15T00:58:53;11.51;79.06
65378;SHT31;51982;51.042;13.806;2023-01-15T01:01:18;11.57;79.08
65378;SHT31;51982;51.042;13.806;2023-01-15T01:03:47;11.63;78.95
65378;SHT31;51982;51.042;13.806;2023-01-15T01:06:18;11.64;79.13
65378;SHT31;51982;51.042;13.806;2023-01-15T01:08:44;11.71;78.94
65378;SHT31;51982;51.042;13.806;2023-01-15T01:11:15;11.74;78.99
65378;SHT31;51982;51.042;13.806;2023-01-15T01:13:41;11.75;78.99
65378;SHT31;51982;51.042;13.806;2023-01-15T01:16:26;11.78;78.91
65378;SHT31;51982;51.042;13.806;2023-01-15T01:18:52;11.84;78.89
65378;SHT31;51982;51.042;13.806;2023-01-15T01:21:18;11.84;78.93
65378;SHT31;51982;51.042;13.806;2023-01-15T01:23:44;11.85;78.92
65378;SHT31;51982;51.042;13.806;2023-01-15T01:26:09;11.87;78.89
65378;SHT31;51982;51.042;13.806;2023-01-15T01:28:34;11.88;78.88
65378;SHT31;51982;51.042;13.806;2023-01-15T01:31:04;11.85;78.80
65378;SHT31;51982;51.042;13.806;2023-01-15T01:33:29;11.85;78.91
65378;SHT31;51982;51.042;13.806;2023-01-15T01:35:54;11.83;79.03
65378;SHT31;51982;51.042;13.806;2023-01-15T01:38:19;11.83;79.03
65378;SHT31;51982;51.042;13.806;2023-01-15T01:40:44;11.84;79.02
65378;SHT31;51982;51.042;13.806;2023-01-15T01:43:21;11.77;79.05
65378;SHT31;51982;51.042;13.806;2023-01-15T01:45:46;11.80;79.01
65378;SHT31;51982;51.042;13.806;2023-01-15T01:48:12;11.80;78.96
65378;SHT31;51982;51.042;13.806;2023-01-15T01:50:39;11.78;79.01
65378;SHT31;51982;51.042;13.806;2023-01-15T01:53:07;11.78;79.05
65378;SHT31;51982;51.042;13.806;2023-01-15T01:55:35;11.81;78.96
65378;SHT31;51982;51.042;13.806;2023-01-15T01:58:03;11.80;79.13
65378;SHT31;51982;51.042;13.806;2023-01-15T02:00:30;11.78;79.09
65378;SHT31;51982;51.042;13.806;2023-01-15T02:02:56;11.81;79.14
65378;SHT31;51982;51.042;13.806;2023-01-15T02:05:43;11.83;79.19
65378;SHT31;51982;51.042;13.806;2023-01-15T02:08:09;11.80;79.34
65378;SHT31;51982;51.042;13.806;2023-01-15T02:10:35;11.81;79.32
65378;SHT31;51982;51.042;13.806;2023-01-15T02:13:07;11.77;79.29
65378;SHT31;51982;51.042;13.806;2023-01-15T02:15:53;11.75;79.53
65378;SHT31;51982;51.042;13.806;2023-01-15T02:18:30;11.80;79.42
65378;SHT31;51982;51.042;13.806;2023-01-15T02:21:02;11.81;79.41
65378;SHT31;51982;51.042;13.806;2023-01-15T02:27:04;11.83;79.46
65378;SHT31;51982;51.042;13.806;2023-01-15T02:29:38;11.80;79.47
65378;SHT31;51982;51.042;13.806;2023-01-15T02:32:09;11.83;79.45
65378;SHT31;51982;51.042;13.806;2023-01-15T02:34:43;11.84;79.54
65378;SHT31;51982;51.042;13.806;2023-01-15T02:37:14;11.80;79.80
65378;SHT31;51982;51.042;13.806;2023-01-15T02:39:43;11.84;79.67
65378;SHT31;51982;51.042;13.806;2023-01-15T02:42:12;11.88;79.76
65378;SHT31;51982;51.042;13.806;2023-01-15T02:44:41;11.91;79.69
65378;SHT31;51982;51.042;13.806;2023-01-15T02:47:08;11.94;79.70
65378;SHT31;51982;51.042;13.806;2023-01-15T02:49:35;11.98;79.63
65378;SHT31;51982;51.042;13.806;2023-01-15T02:52:05;11.95;79.60
65378;SHT31;51982;51.042;13.806;2023-01-15T02:54:40;11.97;79.77
65378;SHT31;51982;51.042;13.806;2023-01-15T02:57:09;12.01;79.86
65378;SHT31;51982;51.042;13.806;2023-01-15T02:59:40;12.02;79.98
65378;SHT31;51982;51.042;13.806;2023-01-15T03:02:11;12.04;79.97
65378;SHT31;51982;51.042;13.806;2023-01-15T03:07:45;12.04;80.15
65378;SHT31;51982;51.042;13.806;2023-01-15T03:10:11;12.06;80.07
65378;SHT31;51982;51.042;13.806;2023-01-15T03:12:45;12.04;79.95
65378;SHT31;51982;51.042;13.806;2023-01-15T03:16:16;12.06;79.99
65378;SHT31;51982;51.042;13.806;2023-01-15T03:19:00;12.10;80.03
65378;SHT31;51982;51.042;13.806;2023-01-15T03:21:30;12.11;80.09
65378;SHT31;51982;51.042;13.806;2023-01-15T03:24:00;12.10;80.03
65378;SHT31;51982;51.042;13.806;2023-01-15T03:26:27;12.15;79.97
65378;SHT31;51982;51.042;13.806;2023-01-15T03:28:53;12.18;80.03
65378;SHT31;51982;51.042;13.806;2023-01-15T03:31:19;12.17;80.03
65378;SHT31;51982;51.042;13.806;2023-01-15T03:33:45;12.18;80.07
65378;SHT31;51982;51.042;13.806;2023-01-15T03:36:11;12.18;80.04
65378;SHT31;51982;51.042;13.806;2023-01-15T03:38:37;12.15;80.02
65378;SHT31;51982;51.042;13.806;2023-01-15T03:41:14;12.18;79.96
65378;SHT31;51982;51.042;13.806;2023-01-15T03:44:00;12.21;79.96
65378;SHT31;51982;51.042;13.806;2023-01-15T03:49:03;12.22;80.48
65378;SHT31;51982;51.042;13.806;2023-01-15T03:51:37;12.22;80.87
65378;SHT31;51982;51.042;13.806;2023-01-15T03:54:10;12.24;81.13
65378;SHT31;51982;51.042;13.806;2023-01-15T03:56:44;12.25;81.17
65378;SHT31;51982;51.042;13.806;2023-01-15T03:59:27;12.18;81.38
65378;SHT31;51982;51.042;13.806;2023-01-15T04:01:53;12.22;81.33
65378;SHT31;51982;51.042;13.806;2023-01-15T04:04:19;12.25;81.37
65378;SHT31;51982;51.042;13.806;2023-01-15T04:06:45;12.25;81.36
65378;SHT31;51982;51.042;13.806;2023-01-15T04:09:12;12.29;81.32
65378;SHT31;51982;51.042;13.806;2023-01-15T04:11:37;12.32;81.28
65378;SHT31;51982;51.042;13.806;2023-01-15T04:14:03;12.28;81.21
65378;SHT31;51982;51.042;13.806;2023-01-15T04:16:31;12.24;81.27
65378;SHT31;51982;51.042;13.806;2023-01-15T04:18:57;12.24;81.19
65378;SHT31;51982;51.042;13.806;2023-01-15T04:21:23;12.26;81.35
65378;SHT31;51982;51.042;13.806;2023-01-15T04:23:48;12.28;81.34
65378;SHT31;51982;51.042;13.806;2023-01-15T04:26:13;12.28;81.41
65378;SHT31;51982;51.042;13.806;2023-01-15T04:28:39;12.29;81.53
65378;SHT31;51982;51.042;13.806;2023-01-15T04:31:05;12.26;81.83
65378;SHT31;51982;51.042;13.806;2023-01-15T04:33:30;12.26;81.78
65378;SHT31;51982;51.042;13.806;2023-01-15T04:35:59;12.24;81.86
65378;SHT31;51982;51.042;13.806;2023-01-15T04:38:24;12.22;82.10
65378;SHT31;51982;51.042;13.806;2023-01-15T04:40:50;12.25;82.18
65378;SHT31;51982;51.042;13.806;2023-01-15T04:43:33;12.25;82.18
65378;SHT31;51982;51.042;13.806;2023-01-15T04:46:20;12.22;82.17
65378;SHT31;51982;51.042;13.806;2023-01-15T04:48:46;12.22;82.26
65378;SHT31;51982;51.042;13.806;2023-01-15T04:51:11;12.25;82.33
65378;SHT31;51982;51.042;13.806;2023-01-15T04:53:36;12.22;82.43
65378;SHT31;51982;51.042;13.806;2023-01-15T04:56:03;12.24;82.36
65378;SHT31;51982;51.042;13.806;2023-01-15T04:58:29;12.24;82.30
65378;SHT31;51982;51.042;13.806;2023-01-15T05:00:54;12.25;82.35
65378;SHT31;51982;51.042;13.806;2023-01-15T05:03:20;12.22;82.36
65378;SHT31;51982;51.042;13.806;2023-01-15T05:05:45;12.24;82.35
65378;SHT31;51982;51.042;13.806;2023-01-15T05:08:10;12.24;82.40
65378;SHT31;51982;51.042;13.806;2023-01-15T05:10:35;12.21;82.47
65378;SHT31;51982;51.042;13.806;2023-01-15T05:13:01;12.22;82.49
65378;SHT31;51982;51.042;13.806;2023-01-15T05:15:26;12.21;82.51
65378;SHT31;51982;51.042;13.806;2023-01-15T05:17:51;12.24;82.47
65378;SHT31;51982;51.042;13.806;2023-01-15T05:20:16;12.21;82.65
65378;SHT31;51982;51.042;13.806;2023-01-15T05:22:41;12.22;82.46
65378;SHT31;51982;51.042;13.806;2023-01-15T05:25:07;12.22;82.43
65378;SHT31;51982;51.042;13.806;2023-01-15T05:27:32;12.25;82.34
65378;SHT31;51982;51.042;13.806;2023-01-15T05:29:57;12.26;82.34
65378;SHT31;51982;51.042;13.806;2023-01-15T05:32:23;12.29;82.19
65378;SHT31;51982;51.042;13.806;2023-01-15T05:34:48;12.29;82.09
65378;SHT31;51982;51.042;13.806;2023-01-15T05:37:13;12.31;82.07
65378;SHT31;51982;51.042;13.806;2023-01-15T05:39:38;12.31;82.09
65378;SHT31;51982;51.042;13.806;2023-01-15T05:42:03;12.29;82.08
65378;SHT31;51982;51.042;13.806;2023-01-15T05:44:29;12.32;81.93
65378;SHT31;51982;51.042;13.806;2023-01-15T05:46:57;12.32;81.81
65378;SHT31;51982;51.042;13.806;2023-01-15T05:49:25;12.34;81.75
65378;SHT31;51982;51.042;13.806;2023-01-15T05:51:52;12.38;81.68
65378;SHT31;51982;51.042;13.806;2023-01-15T05:54:20;12.35;81.66
65378;SHT31;51982;51.042;13.806;2023-01-15T05:56:46;12.38;81.60
65378;SHT31;51982;51.042;13.806;2023-01-15T05:59:13;12.41;81.63
65378;SHT31;51982;51.042;13.806;2023-01-15T06:01:39;12.38;81.59
65378;SHT31;51982;51.042;13.806;2023-01-15T06:04:05;12.44;81.56
65378;SHT31;51982;51.042;13.806;2023-01-15T06:06:31;12.45;81.51
65378;SHT31;51982;51.042;13.806;2023-01-15T06:08:57;12.42;81.54
65378;SHT31;51982;51.042;13.806;2023-01-15T06:11:22;12.44;81.63
65378;SHT31;51982;51.042;13.806;2023-01-15T06:13:48;12.42;81.56
65378;SHT31;51982;51.042;13.806;2023-01-15T06:16:13;12.41;81.57
65378;SHT31;51982;51.042;13.806;2023-01-15T06:18:38;12.45;81.66
65378;SHT31;51982;51.042;13.806;2023-01-15T06:21:05;12.42;81.69
65378;SHT31;51982;51.042;13.806;2023-01-15T06:23:31;12.45;81.62
65378;SHT31;51982;51.042;13.806;2023-01-15T06:26:00;12.45;81.58
65378;SHT31;51982;51.042;13.806;2023-01-15T06:28:26;12.46;81.65
65378;SHT31;51982;51.042;13.806;2023-01-15T06:30:51;12.50;81.50
65378;SHT31;51982;51.042;13.806;2023-01-15T06:33:17;12.49;81.63
65378;SHT31;51982;51.042;13.806;2023-01-15T06:35:42;12.52;81.52
65378;SHT31;51982;51.042;13.806;2023-01-15T06:38:07;12.52;81.49
65378;SHT31;51982;51.042;13.806;2023-01-15T06:40:32;12.55;81.35
65378;SHT31;51982;51.042;13.806;2023-01-15T06:42:58;12.52;81.44
65378;SHT31;51982;51.042;13.806;2023-01-15T06:45:42;12.20;82.39
65378;SHT31;51982;51.042;13.806;2023-01-15T06:48:26;12.32;83.95
65378;SHT31;51982;51.042;13.806;2023-01-15T06:50:52;12.28;85.15
65378;SHT31;51982;51.042;13.806;2023-01-15T06:53:18;12.17;86.97
65378;SHT31;51982;51.042;13.806;2023-01-15T06:55:44;12.21;86.46
65378;SHT31;51982;51.042;13.806;2023-01-15T06:58:09;12.12;88.07
65378;SHT31;51982;51.042;13.806;2023-01-15T07:00:34;11.80;87.25
65378;SHT31;51982;51.042;13.806;2023-01-15T07:03:01;11.43;86.52
65378;SHT31;51982;51.042;13.806;2023-01-15T07:05:26;10.95;86.94
65378;SHT31;51982;51.042;13.806;2023-01-15T07:07:52;10.72;87.46
65378;SHT31;51982;51.042;13.806;2023-01-15T07:10:17;10.37;89.21
65378;SHT31;51982;51.042;13.806;2023-01-15T07:12:43;10.36;89.13
65378;SHT31;51982;51.042;13.806;2023-01-15T07:15:09;10.37;88.60
65378;SHT31;51982;51.042;13.806;2023-01-15T07:17:34;10.38;88.98
65378;SHT31;51982;51.042;13.806;2023-01-15T07:19:59;10.30;88.07
65378;SHT31;51982;51.042;13.806;2023-01-15T07:22:25;10.30;88.63
65378;SHT31;51982;51.042;13.806;2023-01-15T07:24:50;10.27;88.14
65378;SHT31;51982;51.042;13.806;2023-01-15T07:27:15;10.30;87.72
65378;SHT31;51982;51.042;13.806;2023-01-15T07:29:40;10.13;87.84
65378;SHT31;51982;51.042;13.806;2023-01-15T07:32:06;10.21;88.37
65378;SHT31;51982;51.042;13.806;2023-01-15T07:34:31;10.24;87.65
65378;SHT31;51982;51.042;13.806;2023-01-15T07:36:56;10.22;87.48
65378;SHT31;51982;51.042;13.806;2023-01-15T07:39:21;10.25;86.80
65378;SHT31;51982;51.042;13.806;2023-01-15T07:41:47;10.31;86.02
65378;SHT31;51982;51.042;13.806;2023-01-15T07:44:30;10.28;86.20
65378;SHT31;51982;51.042;13.806;2023-01-15T07:47:19;10.25;85.92
65378;SHT31;51982;51.042;13.806;2023-01-15T07:50:06;10.31;85.55
65378;SHT31;51982;51.042;13.806;2023-01-15T07:52:31;10.34;85.47
65378;SHT31;51982;51.042;13.806;2023-01-15T07:54:57;10.42;85.33
65378;SHT31;51982;51.042;13.806;2023-01-15T07:57:22;10.36;85.28
65378;SHT31;51982;51.042;13.806;2023-01-15T07:59:48;10.28;85.19
65378;SHT31;51982;51.042;13.806;2023-01-15T08:02:14;10.21;85.38
65378;SHT31;51982;51.042;13.806;2023-01-15T08:04:39;10.24;85.74
65378;SHT31;51982;51.042;13.806;2023-01-15T08:07:05;10.18;86.61
65378;SHT31;51982;51.042;13.806;2023-01-15T08:09:30;10.17;86.31
65378;SHT31;51982;51.042;13.806;2023-01-15T08:12:00;10.17;86.47
65378;SHT31;51982;51.042;13.806;2023-01-15T08:14:44;10.14;86.56
65378;SHT31;51982;51.042;13.806;2023-01-15T08:17:29;10.13;86.71
65378;SHT31;51982;51.042;13.806;2023-01-15T08:19:54;10.11;85.87
65378;SHT31;51982;51.042;13.806;2023-01-15T08:22:19;10.20;85.73
65378;SHT31;51982;51.042;13.806;2023-01-15T08:24:45;10.14;85.13
65378;SHT31;51982;51.042;13.806;2023-01-15T08:27:10;10.25;85.10
65378;SHT31;51982;51.042;13.806;2023-01-15T08:29:36;10.25;84.88
65378;SHT31;51982;51.042;13.806;2023-01-15T08:32:01;10.21;84.86
65378;SHT31;51982;51.042;13.806;2023-01-15T08:34:26;10.22;85.07
65378;SHT31;51982;51.042;13.806;2023-01-15T08:36:51;10.30;85.16
65378;SHT31;51982;51.042;13.806;2023-01-15T08:39:22;10.38;84.70
65378;SHT31;51982;51.042;13.806;2023-01-15T08:41:47;10.34;84.08
65378;SHT31;51982;51.042;13.806;2023-01-15T08:44:12;10.33;84.57
65378;SHT31;51982;51.042;13.806;2023-01-15T08:46:37;10.27;84.16
65378;SHT31;51982;51.042;13.806;2023-01-15T08:49:03;10.25;84.75
65378;SHT31;51982;51.042;13.806;2023-01-15T08:51:28;10.27;84.21
65378;SHT31;51982;51.042;13.806;2023-01-15T08:53:53;10.21;84.44
65378;SHT31;51982;51.042;13.806;2023-01-15T08:56:19;10.14;84.37
65378;SHT31;51982;51.042;13.806;2023-01-15T08:58:45;10.10;84.51
65378;SHT31;51982;51.042;13.806;2023-01-15T09:01:11;10.17;84.40
65378;SHT31;51982;51.042;13.806;2023-01-15T09:03:43;10.36;84.41
65378;SHT31;51982;51.042;13.806;2023-01-15T09:06:08;10.45;84.25
65378;SHT31;51982;51.042;13.806;2023-01-15T09:08:35;10.58;84.04
65378;SHT31;51982;51.042;13.806;2023-01-15T09:11:02;10.67;83.91
65378;SHT31;51982;51.042;13.806;2023-01-15T09:13:29;10.52;83.38
65378;SHT31;51982;51.042;13.806;2023-01-15T09:16:03;10.42;84.01
65378;SHT31;51982;51.042;13.806;2023-01-15T09:18:29;10.33;83.91
65378;SHT31;51982;51.042;13.806;2023-01-15T09:20:54;10.24;83.71
65378;SHT31;51982;51.042;13.806;2023-01-15T09:23:20;10.25;83.80
65378;SHT31;51982;51.042;13.806;2023-01-15T09:25:57;10.21;83.94
65378;SHT31;51982;51.042;13.806;2023-01-15T09:28:22;10.38;84.00
65378;SHT31;51982;51.042;13.806;2023-01-15T09:30:48;10.37;84.26
65378;SHT31;51982;51.042;13.806;2023-01-15T09:33:13;10.37;84.26
65378;SHT31;51982;51.042;13.806;2023-01-15T09:35:39;10.36;84.00
65378;SHT31;51982;51.042;13.806;2023-01-15T09:38:05;10.37;84.25
65378;SHT31;51982;51.042;13.806;2023-01-15T09:43:03;10.34;84.63
65378;SHT31;51982;51.042;13.806;2023-01-15T09:45:36;10.47;84.57
65378;SHT31;51982;51.042;13.806;2023-01-15T09:48:19;10.59;84.26
65378;SHT31;51982;51.042;13.806;2023-01-15T09:51:01;10.65;84.25
65378;SHT31;51982;51.042;13.806;2023-01-15T09:54:02;10.57;84.17
65378;SHT31;51982;51.042;13.806;2023-01-15T09:56:30;10.55;84.35
65378;SHT31;51982;51.042;13.806;2023-01-15T09:58:58;10.58;84.44
65378;SHT31;51982;51.042;13.806;2023-01-15T10:01:29;10.58;84.19
65378;SHT31;51982;51.042;13.806;2023-01-15T10:04:03;10.62;83.89
65378;SHT31;51982;51.042;13.806;2023-01-15T10:07:00;10.64;83.87
65378;SHT31;51982;51.042;13.806;2023-01-15T10:09:32;10.69;83.76
65378;SHT31;51982;51.042;13.806;2023-01-15T10:12:15;10.68;83.88
65378;SHT31;51982;51.042;13.806;2023-01-15T10:17:54;10.55;84.41
65378;SHT31;51982;51.042;13.806;2023-01-15T10:20:43;10.58;84.31
65378;SHT31;51982;51.042;13.806;2023-01-15T10:26:12;10.61;84.19
65378;SHT31;51982;51.042;13.806;2023-01-15T10:28:59;10.58;84.06
65378;SHT31;51982;51.042;13.806;2023-01-15T10:31:34;10.57;84.30
65378;SHT31;51982;51.042;13.806;2023-01-15T10:37:26;10.65;84.34
65378;SHT31;51982;51.042;13.806;2023-01-15T10:45:50;10.73;83.69
65378;SHT31;51982;51.042;13.806;2023-01-15T10:48:34;10.69;83.59
65378;SHT31;51982;51.042;13.806;2023-01-15T10:51:11;10.79;83.54
65378;SHT31;51982;51.042;13.806;2023-01-15T10:54:02;10.55;81.06
65378;SHT31;51982;51.042;13.806;2023-01-15T10:56:36;10.61;82.15
65378;SHT31;51982;51.042;13.806;2023-01-15T10:59:15;10.62;81.29
65378;SHT31;51982;51.042;13.806;2023-01-15T11:01:43;10.58;80.81
65378;SHT31;51982;51.042;13.806;2023-01-15T11:04:10;10.52;80.52
65378;SHT31;51982;51.042;13.806;2023-01-15T11:06:38;10.47;80.12
65378;SHT31;51982;51.042;13.806;2023-01-15T11:09:03;10.55;80.42
65378;SHT31;51982;51.042;13.806;2023-01-15T11:11:43;10.57;79.81
65378;SHT31;51982;51.042;13.806;2023-01-15T11:14:39;10.49;78.80
65378;SHT31;51982;51.042;13.806;2023-01-15T11:17:27;10.64;79.21
65378;SHT31;51982;51.042;13.806;2023-01-15T11:20:29;10.69;78.37
65378;SHT31;51982;51.042;13.806;2023-01-15T11:22:56;10.76;79.16
65378;SHT31;51982;51.042;13.806;2023-01-15T11:25:31;10.78;79.40
65378;SHT31;51982;51.042;13.806;2023-01-15T11:27:59;10.75;78.71
65378;SHT31;51982;51.042;13.806;2023-01-15T11:30:28;10.73;78.89
65378;SHT31;51982;51.042;13.806;2023-01-15T11:32:57;10.76;79.06
65378;SHT31;51982;51.042;13.806;2023-01-15T11:35:23;10.76;79.17
65378;SHT31;51982;51.042;13.806;2023-01-15T11:37:49;10.78;78.91
65378;SHT31;51982;51.042;13.806;2023-01-15T11:40:21;10.73;78.84
65378;SHT31;51982;51.042;13.806;2023-01-15T11:42:49;10.76;79.27
65378;SHT31;51982;51.042;13.806;2023-01-15T11:45:33;10.79;78.83
65378;SHT31;51982;51.042;13.806;2023-01-15T11:48:18;10.78;78.84
65378;SHT31;51982;51.042;13.806;2023-01-15T11:51:07;10.72;78.60
65378;SHT31;51982;51.042;13.806;2023-01-15T11:53:39;10.79;79.23
65378;SHT31;51982;51.042;13.806;2023-01-15T11:56:09;10.88;79.20
65378;SHT31;51982;51.042;13.806;2023-01-15T11:58:45;10.86;79.00
65378;SHT31;51982;51.042;13.806;2023-01-15T12:01:19;10.91;78.86
65378;SHT31;51982;51.042;13.806;2023-01-15T12:03:45;10.92;78.17
65378;SHT31;51982;51.042;13.806;2023-01-15T12:06:12;10.93;78.16
65378;SHT31;51982;51.042;13.806;2023-01-15T12:14:43;10.83;76.60
65378;SHT31;51982;51.042;13.806;2023-01-15T12:20:24;10.96;76.78
65378;SHT31;51982;51.042;13.806;2023-01-15T12:28:30;11.06;76.92
65378;SHT31;51982;51.042;13.806;2023-01-15T12:31:09;10.98;76.77
65378;SHT31;51982;51.042;13.806;2023-01-15T12:33:42;11.03;76.98
65378;SHT31;51982;51.042;13.806;2023-01-15T12:36:28;11.08;75.95
65378;SHT31;51982;51.042;13.806;2023-01-15T12:38:58;11.10;73.89
65378;SHT31;51982;51.042;13.806;2023-01-15T12:41:29;11.13;76.18
65378;SHT31;51982;51.042;13.806;2023-01-15T12:44:20;11.15;76.03
65378;SHT31;51982;51.042;13.806;2023-01-15T12:47:10;11.18;76.37
65378;SHT31;51982;51.042;13.806;2023-01-15T12:49:43;11.09;75.77
65378;SHT31;51982;51.042;13.806;2023-01-15T12:52:13;11.12;74.00
65378;SHT31;51982;51.042;13.806;2023-01-15T12:54:45;11.18;75.31
65378;SHT31;51982;51.042;13.806;2023-01-15T12:57:33;11.22;74.67
65378;SHT31;51982;51.042;13.806;2023-01-15T13:00:18;11.16;73.60
65378;SHT31;51982;51.042;13.806;2023-01-15T13:05:35;11.12;73.57
65378;SHT31;51982;51.042;13.806;2023-01-15T13:08:20;11.13;74.20
65378;SHT31;51982;51.042;13.806;2023-01-15T13:10:49;11.13;74.04
65378;SHT31;51982;51.042;13.806;2023-01-15T13:13:20;11.09;73.76
65378;SHT31;51982;51.042;13.806;2023-01-15T13:18:44;11.12;73.88
65378;SHT31;51982;51.042;13.806;2023-01-15T13:21:14;11.12;74.08
65378;SHT31;51982;51.042;13.806;2023-01-15T13:29:30;11.16;73.39
65378;SHT31;51982;51.042;13.806;2023-01-15T13:32:12;11.18;72.69
65378;SHT31;51982;51.042;13.806;2023-01-15T13:35:01;11.06;72.46
65378;SHT31;51982;51.042;13.806;2023-01-15T13:37:36;11.18;72.67
65378;SHT31;51982;51.042;13.806;2023-01-15T13:40:26;11.15;72.06
65378;SHT31;51982;51.042;13.806;2023-01-15T13:42:53;11.12;72.20
65378;SHT31;51982;51.042;13.806;2023-01-15T13:45:24;11.00;72.37
65378;SHT31;51982;51.042;13.806;2023-01-15T13:47:54;10.99;72.29
65378;SHT31;51982;51.042;13.806;2023-01-15T13:50:31;10.92;72.07
65378;SHT31;51982;51.042;13.806;2023-01-15T13:53:28;10.96;72.10
65378;SHT31;51982;51.042;13.806;2023-01-15T13:56:10;10.88;72.13
65378;SHT31;51982;51.042;13.806;2023-01-15T13:59:00;10.88;72.18
65378;SHT31;51982;51.042;13.806;2023-01-15T14:06:50;10.89;71.44
65378;SHT31;51982;51.042;13.806;2023-01-15T14:14:43;10.85;71.45
65378;SHT31;51982;51.042;13.806;2023-01-15T14:17:48;10.82;71.24
65378;SHT31;51982;51.042;13.806;2023-01-15T14:23:25;10.69;70.74
65378;SHT31;51982;51.042;13.806;2023-01-15T14:28:47;10.65;71.34
65378;SHT31;51982;51.042;13.806;2023-01-15T14:31:38;10.55;70.97
65378;SHT31;51982;51.042;13.806;2023-01-15T14:36:49;10.47;71.43
65378;SHT31;51982;51.042;13.806;2023-01-15T14:39:32;10.37;70.60
65378;SHT31;51982;51.042;13.806;2023-01-15T14:42:03;10.40;71.22
65378;SHT31;51982;51.042;13.806;2023-01-15T14:44:58;10.25;70.65
65378;SHT31;51982;51.042;13.806;2023-01-15T14:47:28;10.18;70.74
65378;SHT31;51982;51.042;13.806;2023-01-15T14:53:03;9.98;70.63
65378;SHT31;51982;51.042;13.806;2023-01-15T14:55:30;10.04;70.75
65378;SHT31;51982;51.042;13.806;2023-01-15T14:58:02;9.96;70.50
65378;SHT31;51982;51.042;13.806;2023-01-15T15:00:34;9.86;70.38
65378;SHT31;51982;51.042;13.806;2023-01-15T15:03:01;9.96;70.61
65378;SHT31;51982;51.042;13.806;2023-01-15T15:05:30;9.91;70.71
65378;SHT31;51982;51.042;13.806;2023-01-15T15:07:56;9.86;70.96
65378;SHT31;51982;51.042;13.806;2023-01-15T15:10:31;9.85;71.86
65378;SHT31;51982;51.042;13.806;2023-01-15T15:13:01;9.89;71.56
65378;SHT31;51982;51.042;13.806;2023-01-15T15:18:30;9.80;71.07
65378;SHT31;51982;51.042;13.806;2023-01-15T15:21:06;9.67;71.20
65378;SHT31;51982;51.042;13.806;2023-01-15T15:26:28;9.70;71.38
65378;SHT31;51982;51.042;13.806;2023-01-15T15:29:02;9.62;70.95
65378;SHT31;51982;51.042;13.806;2023-01-15T15:31:33;9.59;71.01
65378;SHT31;51982;51.042;13.806;2023-01-15T15:33:59;9.66;70.51
65378;SHT31;51982;51.042;13.806;2023-01-15T15:36:26;9.60;70.30
65378;SHT31;51982;51.042;13.806;2023-01-15T15:39:18;9.66;69.98
65378;SHT31;51982;51.042;13.806;2023-01-15T15:41:47;9.70;69.89
65378;SHT31;51982;51.042;13.806;2023-01-15T15:44:43;9.62;69.67
65378;SHT31;51982;51.042;13.806;2023-01-15T15:47:38;9.65;69.79
65378;SHT31;51982;51.042;13.806;2023-01-15T15:50:28;9.66;69.84
65378;SHT31;51982;51.042;13.806;2023-01-15T15:52:55;9.66;70.00
65378;SHT31;51982;51.042;13.806;2023-01-15T15:55:26;9.62;69.63
65378;SHT31;51982;51.042;13.806;2023-01-15T15:57:59;9.55;69.81
65378;SHT31;51982;51.042;13.806;2023-01-15T16:00:34;9.50;69.83
65378;SHT31;51982;51.042;13.806;2023-01-15T16:03:13;9.49;69.76
65378;SHT31;51982;51.042;13.806;2023-01-15T16:05:40;9.55;69.91
65378;SHT31;51982;51.042;13.806;2023-01-15T16:08:17;9.49;69.17
65378;SHT31;51982;51.042;13.806;2023-01-15T16:10:45;9.49;69.26
65378;SHT31;51982;51.042;13.806;2023-01-15T16:13:20;9.46;69.03
65378;SHT31;51982;51.042;13.806;2023-01-15T16:15:46;9.50;69.45
65378;SHT31;51982;51.042;13.806;2023-01-15T16:18:21;9.47;69.66
65378;SHT31;51982;51.042;13.806;2023-01-15T16:20:48;9.52;69.64
65378;SHT31;51982;51.042;13.806;2023-01-15T16:23:19;9.49;69.66
65378;SHT31;51982;51.042;13.806;2023-01-15T16:28:26;9.49;69.60
65378;SHT31;51982;51.042;13.806;2023-01-15T16:30:57;9.49;69.59
65378;SHT31;51982;51.042;13.806;2023-01-15T16:33:23;9.47;69.65
65378;SHT31;51982;51.042;13.806;2023-01-15T16:35:54;9.38;69.77
65378;SHT31;51982;51.042;13.806;2023-01-15T16:38:20;9.35;69.93
65378;SHT31;51982;51.042;13.806;2023-01-15T16:40:46;9.39;69.84
65378;SHT31;51982;51.042;13.806;2023-01-15T16:43:22;9.36;69.61
65378;SHT31;51982;51.042;13.806;2023-01-15T16:50:47;9.34;69.92
65378;SHT31;51982;51.042;13.806;2023-01-15T16:55:59;9.31;69.67
65378;SHT31;51982;51.042;13.806;2023-01-15T16:58:34;9.29;69.92
65378;SHT31;51982;51.042;13.806;2023-01-15T17:01:00;9.38;69.77
65378;SHT31;51982;51.042;13.806;2023-01-15T17:03:28;9.35;69.60
65378;SHT31;51982;51.042;13.806;2023-01-15T17:05:57;9.42;69.57
65378;SHT31;51982;51.042;13.806;2023-01-15T17:08:32;9.42;69.55
65378;SHT31;51982;51.042;13.806;2023-01-15T17:11:00;9.46;69.52